sensor_id;sensor_type;location;lat;lon;timestamp;P1;durP1;ratioP1;P2;durP2;ratioP2
483;SDS011;228;48.922;12.198;2023-08-21T04:02:09;16.50;;;15.07;;
483;SDS011;228;48.922;12.198;2023-08-21T04:04:36;18.30;;;16.60;;
483;SDS011;228;48.922;12.198;2023-08-21T04:07:02;19.63;;;17.67;;
483;SDS011;228;48.922;12.198;2023-08-21T04:09:28;20.15;;;18.23;;
483;SDS011;228;48.922;12.198;2023-08-21T04:11:54;19.23;;;17.30;;
483;SDS011;228;48.922;12.198;2023-08-21T04:14:21;18.25;;;16.55;;
483;SDS011;228;48.922;12.198;2023-08-21T04:16:47;18.33;;;16.63;;
483;SDS011;228;48.922;12.198;2023-08-21T04:19:13;19.20;;;17.27;;
483;SDS011;228;48.922;12.198;2023-08-21T04:21:39;18.67;;;16.77;;
483;SDS011;228;48.922;12.198;2023-08-21T04:24:05;19.15;;;17.33;;
483;SDS011;228;48.922;12.198;2023-08-21T04:26:32;20.00;;;18.20;;
483;SDS011;228;48.922;12.198;2023-08-21T04:28:58;19.83;;;17.98;;
483;SDS011;228;48.922;12.198;2023-08-21T04:31:24;20.38;;;18.27;;
483;SDS011;228;48.922;12.198;2023-08-21T04:33:50;19.58;;;17.77;;
483;SDS011;228;48.922;12.198;2023-08-21T04:36:16;17.90;;;16.15;;
483;SDS011;228;48.922;12.198;2023-08-21T04:38:45;18.33;;;16.63;;
483;SDS011;228;48.922;12.198;2023-08-21T04:41:11;18.75;;;17.02;;
483;SDS011;228;48.922;12.198;2023-08-21T04:43:41;21.58;;;18.15;;
483;SDS011;228;48.922;12.198;2023-08-21T04:46:09;20.30;;;18.40;;
483;SDS011;228;48.922;12.198;2023-08-21T04:48:38;20.90;;;19.00;;
483;SDS011;228;48.922;12.198;2023-08-21T04:51:04;21.17;;;19.10;;
483;SDS011;228;48.922;12.198;2023-08-21T04:53:30;20.83;;;18.90;;
483;SDS011;228;48.922;12.198;2023-08-21T04:56:00;19.38;;;17.58;;
483;SDS011;228;48.922;12.198;2023-08-21T04:58:27;20.17;;;18.27;;
483;SDS011;228;48.922;12.198;2023-08-21T05:00:54;19.75;;;17.85;;
483;SDS011;228;48.922;12.198;2023-08-21T05:03:20;21.58;;;19.48;;
483;SDS011;228;48.922;12.198;2023-08-21T05:05:51;19.58;;;17.73;;
483;SDS011;228;48.922;12.198;2023-08-21T05:08:22;20.98;;;18.77;;
483;SDS011;228;48.922;12.198;2023-08-21T05:10:59;21.92;;;19.55;;
483;SDS011;228;48.922;12.198;2023-08-21T05:13:29;21.48;;;18.63;;
483;SDS011;228;48.922;12.198;2023-08-21T05:15:56;21.08;;;18.95;;
483;SDS011;228;48.922;12.198;2023-08-21T05:18:24;19.52;;;17.73;;
483;SDS011;228;48.922;12.198;2023-08-21T05:20:53;19.65;;;17.75;;
483;SDS011;228;48.922;12.198;2023-08-21T05:23:21;19.73;;;17.83;;
483;SDS011;228;48.922;12.198;2023-08-21T05:25:49;18.85;;;17.02;;
483;SDS011;228;48.922;12.198;2023-08-21T05:28:15;20.42;;;18.42;;
483;SDS011;228;48.922;12.198;2023-08-21T05:30:41;19.70;;;17.83;;
483;SDS011;228;48.922;12.198;2023-08-21T05:33:07;18.75;;;16.95;;
483;SDS011;228;48.922;12.198;2023-08-21T05:35:35;17.10;;;15.50;;
483;SDS011;228;48.922;12.198;2023-08-21T05:38:02;19.30;;;17.30;;
483;SDS011;228;48.922;12.198;2023-08-21T05:40:29;17.60;;;15.90;;
483;SDS011;228;48.922;12.198;2023-08-21T05:42:56;17.48;;;15.93;;
483;SDS011;228;48.922;12.198;2023-08-21T05:45:21;17.83;;;16.10;;
483;SDS011;228;48.922;12.198;2023-08-21T05:47:47;17.50;;;15.80;;
483;SDS011;228;48.922;12.198;2023-08-21T05:50:13;18.25;;;16.50;;
483;SDS011;228;48.922;12.198;2023-08-21T05:52:40;16.90;;;15.38;;
483;SDS011;228;48.922;12.198;2023-08-21T05:55:07;17.45;;;15.95;;
483;SDS011;228;48.922;12.198;2023-08-21T05:57:33;17.08;;;15.48;;
483;SDS011;228;48.922;12.198;2023-08-21T05:59:59;16.40;;;14.68;;
483;SDS011;228;48.922;12.198;2023-08-21T06:02:30;15.05;;;13.55;;
483;SDS011;228;48.922;12.198;2023-08-21T06:04:57;15.48;;;13.98;;
483;SDS011;228;48.922;12.198;2023-08-21T06:07:23;14.88;;;13.40;;
483;SDS011;228;48.922;12.198;2023-08-21T06:09:49;15.98;;;14.30;;
483;SDS011;228;48.922;12.198;2023-08-21T06:12:15;15.93;;;14.38;;
483;SDS011;228;48.922;12.198;2023-08-21T06:14:42;15.85;;;14.35;;
483;SDS011;228;48.922;12.198;2023-08-21T06:17:08;16.10;;;14.60;;
483;SDS011;228;48.922;12.198;2023-08-21T06:19:35;15.38;;;13.98;;
483;SDS011;228;48.922;12.198;2023-08-21T06:22:01;15.75;;;14.18;;
483;SDS011;228;48.922;12.198;2023-08-21T06:24:27;15.00;;;13.68;;
483;SDS011;228;48.922;12.198;2023-08-21T06:27:01;14.00;;;12.73;;
483;SDS011;228;48.922;12.198;2023-08-21T06:29:27;15.27;;;13.77;;
483;SDS011;228;48.922;12.198;2023-08-21T06:31:54;13.27;;;12.07;;
483;SDS011;228;48.922;12.198;2023-08-21T06:34:21;14.60;;;13.10;;
483;SDS011;228;48.922;12.198;2023-08-21T06:36:47;14.43;;;13.13;;
483;SDS011;228;48.922;12.198;2023-08-21T06:39:13;14.50;;;13.13;;
483;SDS011;228;48.922;12.198;2023-08-21T06:41:39;14.65;;;13.23;;
483;SDS011;228;48.922;12.198;2023-08-21T06:44:05;14.95;;;13.48;;
483;SDS011;228;48.922;12.198;2023-08-21T06:46:31;14.48;;;13.13;;
483;SDS011;228;48.922;12.198;2023-08-21T06:48:57;14.98;;;13.38;;
483;SDS011;228;48.922;12.198;2023-08-21T06:51:23;14.20;;;12.98;;
483;SDS011;228;48.922;12.198;2023-08-21T06:53:49;14.23;;;12.82;;
483;SDS011;228;48.922;12.198;2023-08-21T06:56:15;15.02;;;13.63;;
483;SDS011;228;48.922;12.198;2023-08-21T06:58:41;14.93;;;13.57;;
483;SDS011;228;48.922;12.198;2023-08-21T07:01:06;15.52;;;14.02;;
483;SDS011;228;48.922;12.198;2023-08-21T07:03:32;14.95;;;13.55;;
483;SDS011;228;48.922;12.198;2023-08-21T07:05:59;14.88;;;13.57;;
483;SDS011;228;48.922;12.198;2023-08-21T07:08:25;15.55;;;14.15;;
483;SDS011;228;48.922;12.198;2023-08-21T07:10:52;14.52;;;13.15;;
483;SDS011;228;48.922;12.198;2023-08-21T07:13:19;14.75;;;13.25;;
483;SDS011;228;48.922;12.198;2023-08-21T07:15:46;14.98;;;13.50;;
483;SDS011;228;48.922;12.198;2023-08-21T07:18:13;14.20;;;12.90;;
483;SDS011;228;48.922;12.198;2023-08-21T07:20:39;14.73;;;13.43;;
483;SDS011;228;48.922;12.198;2023-08-21T07:23:05;20.33;;;12.90;;
483;SDS011;228;48.922;12.198;2023-08-21T07:25:31;13.52;;;12.13;;
483;SDS011;228;48.922;12.198;2023-08-21T07:27:57;13.88;;;12.38;;
483;SDS011;228;48.922;12.198;2023-08-21T07:30:24;13.48;;;12.35;;
483;SDS011;228;48.922;12.198;2023-08-21T07:32:50;14.05;;;12.63;;
483;SDS011;228;48.922;12.198;2023-08-21T07:35:15;15.07;;;13.18;;
483;SDS011;228;48.922;12.198;2023-08-21T07:37:45;13.07;;;11.90;;
483;SDS011;228;48.922;12.198;2023-08-21T07:40:11;13.43;;;12.20;;
483;SDS011;228;48.922;12.198;2023-08-21T07:42:37;14.07;;;12.45;;
483;SDS011;228;48.922;12.198;2023-08-21T07:45:04;12.98;;;11.43;;
483;SDS011;228;48.922;12.198;2023-08-21T07:47:30;13.55;;;11.52;;
483;SDS011;228;48.922;12.198;2023-08-21T07:49:56;14.77;;;11.68;;
483;SDS011;228;48.922;12.198;2023-08-21T07:52:23;11.98;;;10.90;;
483;SDS011;228;48.922;12.198;2023-08-21T07:54:52;11.80;;;10.65;;
483;SDS011;228;48.922;12.198;2023-08-21T07:57:18;12.10;;;10.70;;
483;SDS011;228;48.922;12.198;2023-08-21T07:59:44;12.20;;;11.18;;
483;SDS011;228;48.922;12.198;2023-08-21T08:02:10;11.75;;;10.55;;
483;SDS011;228;48.922;12.198;2023-08-21T08:04:40;12.10;;;11.00;;
483;SDS011;228;48.922;12.198;2023-08-21T08:07:07;11.75;;;10.75;;
483;SDS011;228;48.922;12.198;2023-08-21T08:09:33;12.85;;;11.65;;
483;SDS011;228;48.922;12.198;2023-08-21T08:11:59;12.32;;;11.23;;
483;SDS011;228;48.922;12.198;2023-08-21T08:14:25;12.32;;;11.23;;
483;SDS011;228;48.922;12.198;2023-08-21T08:16:51;12.20;;;11.05;;
483;SDS011;228;48.922;12.198;2023-08-21T08:19:18;12.10;;;11.00;;
483;SDS011;228;48.922;12.198;2023-08-21T08:21:44;12.35;;;11.27;;
483;SDS011;228;48.922;12.198;2023-08-21T08:24:10;11.55;;;10.40;;
483;SDS011;228;48.922;12.198;2023-08-21T08:26:37;11.75;;;10.75;;
483;SDS011;228;48.922;12.198;2023-08-21T08:29:03;11.20;;;10.10;;
483;SDS011;228;48.922;12.198;2023-08-21T08:31:30;11.98;;;10.77;;
483;SDS011;228;48.922;12.198;2023-08-21T08:33:56;14.30;;;10.48;;
483;SDS011;228;48.922;12.198;2023-08-21T08:36:22;10.93;;;9.98;;
483;SDS011;228;48.922;12.198;2023-08-21T08:38:48;10.77;;;9.75;;
483;SDS011;228;48.922;12.198;2023-08-21T08:43:58;12.27;;;10.40;;
483;SDS011;228;48.922;12.198;2023-08-21T08:46:27;10.57;;;9.55;;
483;SDS011;228;48.922;12.198;2023-08-21T08:48:56;11.82;;;10.70;;
483;SDS011;228;48.922;12.198;2023-08-21T08:51:25;11.52;;;10.52;;
483;SDS011;228;48.922;12.198;2023-08-21T08:53:54;11.55;;;10.45;;
483;SDS011;228;48.922;12.198;2023-08-21T08:56:23;10.68;;;9.70;;
483;SDS011;228;48.922;12.198;2023-08-21T08:58:50;11.68;;;10.27;;
483;SDS011;228;48.922;12.198;2023-08-21T09:01:16;11.07;;;9.43;;
483;SDS011;228;48.922;12.198;2023-08-21T09:03:42;11.52;;;9.77;;
483;SDS011;228;48.922;12.198;2023-08-21T09:06:10;11.50;;;10.50;;
483;SDS011;228;48.922;12.198;2023-08-21T09:08:35;11.40;;;9.60;;
483;SDS011;228;48.922;12.198;2023-08-21T09:11:02;10.00;;;9.07;;
483;SDS011;228;48.922;12.198;2023-08-21T09:13:31;10.82;;;9.73;;
483;SDS011;228;48.922;12.198;2023-08-21T09:15:58;9.85;;;9.00;;
483;SDS011;228;48.922;12.198;2023-08-21T09:18:24;9.85;;;8.85;;
483;SDS011;228;48.922;12.198;2023-08-21T09:20:50;10.07;;;9.18;;
483;SDS011;228;48.922;12.198;2023-08-21T09:23:17;10.07;;;9.25;;
483;SDS011;228;48.922;12.198;2023-08-21T09:25:44;10.48;;;9.48;;
483;SDS011;228;48.922;12.198;2023-08-21T09:28:14;10.63;;;9.25;;
483;SDS011;228;48.922;12.198;2023-08-21T09:30:50;9.85;;;8.73;;
483;SDS011;228;48.922;12.198;2023-08-21T09:33:18;9.45;;;8.60;;
483;SDS011;228;48.922;12.198;2023-08-21T09:35:46;10.23;;;9.32;;
483;SDS011;228;48.922;12.198;2023-08-21T09:38:13;9.57;;;8.52;;
483;SDS011;228;48.922;12.198;2023-08-21T09:40:40;9.73;;;8.82;;
483;SDS011;228;48.922;12.198;2023-08-21T09:43:08;9.77;;;8.88;;
483;SDS011;228;48.922;12.198;2023-08-21T09:45:36;9.30;;;8.40;;
483;SDS011;228;48.922;12.198;2023-08-21T09:48:03;9.88;;;8.93;;
483;SDS011;228;48.922;12.198;2023-08-21T09:50:29;9.73;;;8.85;;
483;SDS011;228;48.922;12.198;2023-08-21T09:52:56;9.48;;;8.40;;
483;SDS011;228;48.922;12.198;2023-08-21T09:55:42;9.35;;;8.40;;
483;SDS011;228;48.922;12.198;2023-08-21T09:58:08;8.82;;;8.13;;
483;SDS011;228;48.922;12.198;2023-08-21T10:00:37;8.43;;;7.72;;
483;SDS011;228;48.922;12.198;2023-08-21T10:03:06;9.45;;;8.55;;
483;SDS011;228;48.922;12.198;2023-08-21T10:05:34;10.65;;;9.60;;
483;SDS011;228;48.922;12.198;2023-08-21T10:08:02;10.50;;;9.45;;
483;SDS011;228;48.922;12.198;2023-08-21T10:10:30;10.68;;;9.57;;
483;SDS011;228;48.922;12.198;2023-08-21T10:12:58;10.55;;;9.60;;
483;SDS011;228;48.922;12.198;2023-08-21T10:15:26;10.23;;;9.43;;
483;SDS011;228;48.922;12.198;2023-08-21T10:17:53;10.52;;;9.43;;
483;SDS011;228;48.922;12.198;2023-08-21T10:20:24;10.75;;;9.75;;
483;SDS011;228;48.922;12.198;2023-08-21T10:22:55;10.05;;;9.15;;
483;SDS011;228;48.922;12.198;2023-08-21T10:25:26;10.27;;;9.35;;
483;SDS011;228;48.922;12.198;2023-08-21T10:27:53;10.85;;;9.57;;
483;SDS011;228;48.922;12.198;2023-08-21T10:30:29;9.65;;;8.88;;
483;SDS011;228;48.922;12.198;2023-08-21T10:32:56;11.93;;;9.13;;
483;SDS011;228;48.922;12.198;2023-08-21T10:35:30;11.60;;;8.55;;
483;SDS011;228;48.922;12.198;2023-08-21T10:38:10;10.00;;;9.00;;
483;SDS011;228;48.922;12.198;2023-08-21T10:43:45;9.43;;;8.73;;
483;SDS011;228;48.922;12.198;2023-08-21T10:46:12;9.63;;;8.77;;
483;SDS011;228;48.922;12.198;2023-08-21T10:48:39;9.52;;;8.73;;
483;SDS011;228;48.922;12.198;2023-08-21T10:51:06;8.65;;;7.85;;
483;SDS011;228;48.922;12.198;2023-08-21T10:53:34;8.57;;;7.88;;
483;SDS011;228;48.922;12.198;2023-08-21T10:56:03;8.43;;;7.72;;
483;SDS011;228;48.922;12.198;2023-08-21T10:58:43;8.93;;;8.15;;
483;SDS011;228;48.922;12.198;2023-08-21T11:01:12;9.57;;;8.77;;
483;SDS011;228;48.922;12.198;2023-08-21T11:03:39;8.60;;;7.90;;
483;SDS011;228;48.922;12.198;2023-08-21T11:06:06;8.38;;;7.57;;
483;SDS011;228;48.922;12.198;2023-08-21T11:08:34;8.10;;;7.38;;
483;SDS011;228;48.922;12.198;2023-08-21T11:11:04;8.63;;;7.25;;
483;SDS011;228;48.922;12.198;2023-08-21T11:13:31;7.50;;;6.90;;
483;SDS011;228;48.922;12.198;2023-08-21T11:16:01;8.77;;;8.05;;
483;SDS011;228;48.922;12.198;2023-08-21T11:18:32;8.93;;;8.13;;
483;SDS011;228;48.922;12.198;2023-08-21T11:23:32;8.38;;;7.65;;
483;SDS011;228;48.922;12.198;2023-08-21T11:26:00;8.23;;;7.47;;
483;SDS011;228;48.922;12.198;2023-08-21T11:28:29;8.98;;;7.65;;
483;SDS011;228;48.922;12.198;2023-08-21T11:30:57;8.15;;;7.25;;
483;SDS011;228;48.922;12.198;2023-08-21T11:33:25;8.55;;;7.78;;
483;SDS011;228;48.922;12.198;2023-08-21T11:35:52;8.98;;;8.00;;
483;SDS011;228;48.922;12.198;2023-08-21T11:38:23;8.50;;;7.70;;
483;SDS011;228;48.922;12.198;2023-08-21T11:40:58;9.30;;;7.85;;
483;SDS011;228;48.922;12.198;2023-08-21T11:43:34;7.70;;;7.10;;
483;SDS011;228;48.922;12.198;2023-08-21T11:46:07;8.23;;;7.15;;
483;SDS011;228;48.922;12.198;2023-08-21T11:48:39;7.72;;;7.07;;
483;SDS011;228;48.922;12.198;2023-08-21T11:51:06;8.00;;;7.30;;
483;SDS011;228;48.922;12.198;2023-08-21T11:53:36;8.15;;;7.47;;
483;SDS011;228;48.922;12.198;2023-08-21T11:56:11;9.75;;;8.02;;
483;SDS011;228;48.922;12.198;2023-08-21T11:58:42;8.35;;;7.65;;
483;SDS011;228;48.922;12.198;2023-08-21T12:01:18;8.63;;;7.80;;
483;SDS011;228;48.922;12.198;2023-08-21T12:03:46;8.23;;;7.53;;
483;SDS011;228;48.922;12.198;2023-08-21T12:06:19;9.77;;;7.65;;
483;SDS011;228;48.922;12.198;2023-08-21T12:08:46;9.18;;;8.35;;
483;SDS011;228;48.922;12.198;2023-08-21T12:11:12;8.05;;;7.45;;
483;SDS011;228;48.922;12.198;2023-08-21T12:13:38;8.35;;;7.65;;
483;SDS011;228;48.922;12.198;2023-08-21T12:16:04;8.43;;;7.72;;
483;SDS011;228;48.922;12.198;2023-08-21T12:18:30;8.20;;;7.50;;
483;SDS011;228;48.922;12.198;2023-08-21T12:20:56;10.45;;;8.05;;
483;SDS011;228;48.922;12.198;2023-08-21T12:23:22;8.43;;;7.63;;
483;SDS011;228;48.922;12.198;2023-08-21T12:25:48;8.50;;;7.80;;
483;SDS011;228;48.922;12.198;2023-08-21T12:28:14;8.85;;;8.05;;
483;SDS011;228;48.922;12.198;2023-08-21T12:30:40;8.52;;;7.70;;
483;SDS011;228;48.922;12.198;2023-08-21T12:33:06;8.02;;;7.05;;
483;SDS011;228;48.922;12.198;2023-08-21T12:35:32;8.05;;;7.30;;
483;SDS011;228;48.922;12.198;2023-08-21T12:37:58;8.40;;;7.60;;
483;SDS011;228;48.922;12.198;2023-08-21T12:40:30;7.78;;;7.10;;
483;SDS011;228;48.922;12.198;2023-08-21T12:42:57;6.82;;;6.28;;
483;SDS011;228;48.922;12.198;2023-08-21T12:45:23;7.00;;;6.43;;
483;SDS011;228;48.922;12.198;2023-08-21T12:47:49;7.43;;;6.78;;
483;SDS011;228;48.922;12.198;2023-08-21T12:50:15;7.85;;;7.25;;
483;SDS011;228;48.922;12.198;2023-08-21T12:52:41;7.55;;;6.95;;
483;SDS011;228;48.922;12.198;2023-08-21T12:55:07;8.00;;;7.30;;
483;SDS011;228;48.922;12.198;2023-08-21T12:57:33;7.28;;;6.75;;
483;SDS011;228;48.922;12.198;2023-08-21T12:59:59;7.70;;;7.10;;
483;SDS011;228;48.922;12.198;2023-08-21T13:02:25;8.40;;;7.60;;
483;SDS011;228;48.922;12.198;2023-08-21T13:04:52;7.95;;;7.30;;
483;SDS011;228;48.922;12.198;2023-08-21T13:07:18;7.50;;;6.80;;
483;SDS011;228;48.922;12.198;2023-08-21T13:09:44;7.70;;;7.05;;
483;SDS011;228;48.922;12.198;2023-08-21T13:12:10;8.07;;;7.35;;
483;SDS011;228;48.922;12.198;2023-08-21T13:14:36;7.38;;;6.78;;
483;SDS011;228;48.922;12.198;2023-08-21T13:17:02;7.32;;;6.75;;
483;SDS011;228;48.922;12.198;2023-08-21T13:19:29;8.38;;;7.40;;
483;SDS011;228;48.922;12.198;2023-08-21T13:21:56;8.15;;;7.10;;
483;SDS011;228;48.922;12.198;2023-08-21T13:24:22;7.93;;;7.32;;
483;SDS011;228;48.922;12.198;2023-08-21T13:26:48;8.10;;;7.30;;
483;SDS011;228;48.922;12.198;2023-08-21T13:29:13;7.72;;;6.93;;
483;SDS011;228;48.922;12.198;2023-08-21T13:31:39;7.75;;;7.15;;
483;SDS011;228;48.922;12.198;2023-08-21T13:34:05;7.80;;;7.20;;
483;SDS011;228;48.922;12.198;2023-08-21T13:36:31;8.70;;;7.80;;
483;SDS011;228;48.922;12.198;2023-08-21T13:38:57;7.75;;;7.05;;
483;SDS011;228;48.922;12.198;2023-08-21T13:41:23;8.02;;;7.40;;
483;SDS011;228;48.922;12.198;2023-08-21T13:43:49;8.20;;;7.50;;
483;SDS011;228;48.922;12.198;2023-08-21T13:46:15;8.05;;;7.28;;
483;SDS011;228;48.922;12.198;2023-08-21T13:48:41;8.02;;;7.22;;
483;SDS011;228;48.922;12.198;2023-08-21T13:51:08;8.10;;;7.30;;
483;SDS011;228;48.922;12.198;2023-08-21T13:53:34;7.78;;;7.13;;
483;SDS011;228;48.922;12.198;2023-08-21T13:56:00;10.90;;;7.55;;
483;SDS011;228;48.922;12.198;2023-08-21T13:58:26;10.50;;;7.70;;
483;SDS011;228;48.922;12.198;2023-08-21T14:00:52;8.13;;;7.57;;
483;SDS011;228;48.922;12.198;2023-08-21T14:03:18;8.25;;;7.60;;
483;SDS011;228;48.922;12.198;2023-08-21T14:05:44;8.45;;;7.72;;
483;SDS011;228;48.922;12.198;2023-08-21T14:08:10;8.30;;;7.55;;
483;SDS011;228;48.922;12.198;2023-08-21T14:10:36;8.75;;;7.45;;
483;SDS011;228;48.922;12.198;2023-08-21T14:13:02;7.78;;;7.07;;
483;SDS011;228;48.922;12.198;2023-08-21T14:15:31;7.93;;;7.22;;
483;SDS011;228;48.922;12.198;2023-08-21T14:17:57;8.88;;;7.55;;
483;SDS011;228;48.922;12.198;2023-08-21T14:20:23;7.97;;;7.40;;
483;SDS011;228;48.922;12.198;2023-08-21T14:22:50;8.68;;;7.38;;
483;SDS011;228;48.922;12.198;2023-08-21T14:25:16;8.25;;;7.57;;
483;SDS011;228;48.922;12.198;2023-08-21T14:27:43;8.45;;;7.65;;
483;SDS011;228;48.922;12.198;2023-08-21T14:30:09;8.48;;;7.78;;
483;SDS011;228;48.922;12.198;2023-08-21T14:32:35;8.32;;;7.50;;
483;SDS011;228;48.922;12.198;2023-08-21T14:35:02;8.52;;;7.82;;
483;SDS011;228;48.922;12.198;2023-08-21T14:37:29;9.02;;;7.75;;
483;SDS011;228;48.922;12.198;2023-08-21T14:39:55;9.00;;;7.20;;
483;SDS011;228;48.922;12.198;2023-08-21T14:42:21;8.60;;;7.70;;
483;SDS011;228;48.922;12.198;2023-08-21T14:44:47;8.68;;;7.93;;
483;SDS011;228;48.922;12.198;2023-08-21T14:47:13;7.82;;;7.05;;
483;SDS011;228;48.922;12.198;2023-08-21T14:49:38;8.90;;;8.07;;
483;SDS011;228;48.922;12.198;2023-08-21T14:52:04;7.97;;;7.32;;
483;SDS011;228;48.922;12.198;2023-08-21T14:54:32;8.02;;;7.20;;
483;SDS011;228;48.922;12.198;2023-08-21T14:56:59;8.15;;;7.35;;
483;SDS011;228;48.922;12.198;2023-08-21T14:59:25;8.32;;;7.63;;
483;SDS011;228;48.922;12.198;2023-08-21T15:01:51;8.05;;;7.28;;
483;SDS011;228;48.922;12.198;2023-08-21T15:04:17;7.50;;;6.97;;
483;SDS011;228;48.922;12.198;2023-08-21T15:06:43;8.88;;;7.97;;
483;SDS011;228;48.922;12.198;2023-08-21T15:09:09;8.43;;;7.43;;
483;SDS011;228;48.922;12.198;2023-08-21T15:11:35;8.30;;;7.60;;
483;SDS011;228;48.922;12.198;2023-08-21T15:14:02;7.80;;;7.20;;
483;SDS011;228;48.922;12.198;2023-08-21T15:16:28;8.85;;;8.00;;
483;SDS011;228;48.922;12.198;2023-08-21T15:18:55;8.02;;;7.43;;
483;SDS011;228;48.922;12.198;2023-08-21T15:21:21;8.80;;;7.88;;
483;SDS011;228;48.922;12.198;2023-08-21T15:23:47;9.48;;;7.93;;
483;SDS011;228;48.922;12.198;2023-08-21T15:26:13;8.45;;;7.75;;
483;SDS011;228;48.922;12.198;2023-08-21T15:28:39;9.35;;;8.10;;
483;SDS011;228;48.922;12.198;2023-08-21T15:31:05;11.25;;;7.60;;
483;SDS011;228;48.922;12.198;2023-08-21T15:33:32;8.75;;;7.85;;
483;SDS011;228;48.922;12.198;2023-08-21T15:35:58;8.30;;;7.43;;
483;SDS011;228;48.922;12.198;2023-08-21T15:38:24;8.45;;;7.45;;
483;SDS011;228;48.922;12.198;2023-08-21T15:40:50;8.63;;;7.80;;
483;SDS011;228;48.922;12.198;2023-08-21T15:43:16;8.73;;;7.57;;
483;SDS011;228;48.922;12.198;2023-08-21T15:45:42;8.90;;;7.97;;
483;SDS011;228;48.922;12.198;2023-08-21T15:48:08;8.65;;;7.78;;
483;SDS011;228;48.922;12.198;2023-08-21T15:50:34;12.38;;;8.13;;
483;SDS011;228;48.922;12.198;2023-08-21T15:53:00;9.23;;;7.95;;
483;SDS011;228;48.922;12.198;2023-08-21T15:55:26;8.65;;;7.78;;
483;SDS011;228;48.922;12.198;2023-08-21T15:57:52;9.55;;;8.02;;
483;SDS011;228;48.922;12.198;2023-08-21T16:00:18;10.48;;;8.23;;
483;SDS011;228;48.922;12.198;2023-08-21T16:02:46;10.45;;;7.95;;
483;SDS011;228;48.922;12.198;2023-08-21T16:05:13;8.93;;;8.02;;
483;SDS011;228;48.922;12.198;2023-08-21T16:07:39;9.85;;;7.82;;
483;SDS011;228;48.922;12.198;2023-08-21T16:10:05;10.23;;;8.27;;
483;SDS011;228;48.922;12.198;2023-08-21T16:12:34;8.88;;;7.80;;
483;SDS011;228;48.922;12.198;2023-08-21T16:15:03;8.60;;;7.80;;
483;SDS011;228;48.922;12.198;2023-08-21T16:17:29;9.05;;;8.15;;
483;SDS011;228;48.922;12.198;2023-08-21T16:19:55;8.27;;;7.55;;
483;SDS011;228;48.922;12.198;2023-08-21T16:22:21;8.20;;;7.50;;
483;SDS011;228;48.922;12.198;2023-08-21T16:24:48;8.52;;;7.63;;
483;SDS011;228;48.922;12.198;2023-08-21T16:27:13;8.35;;;7.20;;
483;SDS011;228;48.922;12.198;2023-08-21T16:29:40;8.93;;;8.02;;
483;SDS011;228;48.922;12.198;2023-08-21T16:32:06;8.88;;;8.18;;
483;SDS011;228;48.922;12.198;2023-08-21T16:34:33;9.90;;;7.80;;
483;SDS011;228;48.922;12.198;2023-08-21T16:36:59;8.68;;;7.63;;
483;SDS011;228;48.922;12.198;2023-08-21T16:39:28;8.93;;;8.10;;
483;SDS011;228;48.922;12.198;2023-08-21T16:41:54;9.82;;;7.93;;
483;SDS011;228;48.922;12.198;2023-08-21T16:44:20;9.98;;;7.47;;
483;SDS011;228;48.922;12.198;2023-08-21T16:46:48;8.73;;;7.82;;
483;SDS011;228;48.922;12.198;2023-08-21T16:49:14;12.32;;;7.35;;
483;SDS011;228;48.922;12.198;2023-08-21T16:51:40;8.95;;;7.95;;
483;SDS011;228;48.922;12.198;2023-08-21T16:54:07;8.23;;;7.32;;
483;SDS011;228;48.922;12.198;2023-08-21T16:56:33;9.48;;;7.70;;
483;SDS011;228;48.922;12.198;2023-08-21T16:58:59;10.68;;;7.38;;
483;SDS011;228;48.922;12.198;2023-08-21T17:01:26;8.95;;;7.88;;
483;SDS011;228;48.922;12.198;2023-08-21T17:03:52;7.85;;;7.07;;
483;SDS011;228;48.922;12.198;2023-08-21T17:06:21;9.07;;;8.02;;
483;SDS011;228;48.922;12.198;2023-08-21T17:08:48;11.80;;;7.95;;
483;SDS011;228;48.922;12.198;2023-08-21T17:11:14;10.68;;;7.90;;
483;SDS011;228;48.922;12.198;2023-08-21T17:13:40;8.90;;;7.97;;
483;SDS011;228;48.922;12.198;2023-08-21T17:16:06;9.43;;;8.18;;
483;SDS011;228;48.922;12.198;2023-08-21T17:18:32;10.45;;;8.00;;
483;SDS011;228;48.922;12.198;2023-08-21T17:20:58;8.60;;;7.80;;
483;SDS011;228;48.922;12.198;2023-08-21T17:23:24;8.80;;;8.10;;
483;SDS011;228;48.922;12.198;2023-08-21T17:25:50;9.38;;;8.25;;
483;SDS011;228;48.922;12.198;2023-08-21T17:28:16;9.05;;;8.02;;
483;SDS011;228;48.922;12.198;2023-08-21T17:30:42;10.18;;;7.78;;
483;SDS011;228;48.922;12.198;2023-08-21T17:33:08;8.82;;;7.82;;
483;SDS011;228;48.922;12.198;2023-08-21T17:35:35;8.68;;;7.80;;
483;SDS011;228;48.922;12.198;2023-08-21T17:38:01;17.00;;;8.43;;
483;SDS011;228;48.922;12.198;2023-08-21T17:40:28;30.67;;;9.55;;
483;SDS011;228;48.922;12.198;2023-08-21T17:42:55;20.08;;;8.35;;
483;SDS011;228;48.922;12.198;2023-08-21T17:45:20;24.35;;;9.63;;
483;SDS011;228;48.922;12.198;2023-08-21T17:47:47;18.38;;;7.95;;
483;SDS011;228;48.922;12.198;2023-08-21T17:50:13;13.65;;;7.97;;
483;SDS011;228;48.922;12.198;2023-08-21T17:52:39;19.85;;;8.25;;
483;SDS011;228;48.922;12.198;2023-08-21T17:55:05;14.98;;;7.90;;
483;SDS011;228;48.922;12.198;2023-08-21T17:57:32;22.33;;;8.68;;
483;SDS011;228;48.922;12.198;2023-08-21T18:00:00;19.35;;;8.50;;
483;SDS011;228;48.922;12.198;2023-08-21T18:02:35;14.02;;;8.88;;
483;SDS011;228;48.922;12.198;2023-08-21T18:05:02;17.08;;;8.63;;
483;SDS011;228;48.922;12.198;2023-08-21T18:07:31;12.23;;;8.13;;
483;SDS011;228;48.922;12.198;2023-08-21T18:10:01;13.98;;;8.95;;
483;SDS011;228;48.922;12.198;2023-08-21T18:12:28;10.85;;;8.20;;
483;SDS011;228;48.922;12.198;2023-08-21T18:14:54;12.20;;;9.68;;
483;SDS011;228;48.922;12.198;2023-08-21T18:17:22;15.48;;;10.15;;
483;SDS011;228;48.922;12.198;2023-08-21T18:19:48;11.88;;;8.73;;
483;SDS011;228;48.922;12.198;2023-08-21T18:22:14;11.30;;;9.20;;
483;SDS011;228;48.922;12.198;2023-08-21T18:24:40;9.68;;;8.68;;
483;SDS011;228;48.922;12.198;2023-08-21T18:27:08;11.25;;;8.30;;
483;SDS011;228;48.922;12.198;2023-08-21T18:29:34;11.60;;;8.07;;
483;SDS011;228;48.922;12.198;2023-08-21T18:32:04;10.48;;;8.38;;
483;SDS011;228;48.922;12.198;2023-08-21T18:34:34;10.43;;;8.50;;
483;SDS011;228;48.922;12.198;2023-08-21T18:37:05;9.60;;;8.57;;
483;SDS011;228;48.922;12.198;2023-08-21T18:39:33;12.25;;;9.07;;
483;SDS011;228;48.922;12.198;2023-08-21T18:41:59;12.18;;;8.55;;
483;SDS011;228;48.922;12.198;2023-08-21T18:44:25;14.10;;;9.77;;
483;SDS011;228;48.922;12.198;2023-08-21T18:46:52;16.70;;;8.90;;
483;SDS011;228;48.922;12.198;2023-08-21T18:49:18;13.00;;;9.05;;
483;SDS011;228;48.922;12.198;2023-08-21T18:51:44;13.93;;;9.05;;
483;SDS011;228;48.922;12.198;2023-08-21T18:54:10;17.85;;;9.43;;
483;SDS011;228;48.922;12.198;2023-08-21T18:56:36;15.75;;;8.57;;
483;SDS011;228;48.922;12.198;2023-08-21T18:59:02;10.65;;;8.70;;
483;SDS011;228;48.922;12.198;2023-08-21T19:01:28;14.43;;;9.60;;
483;SDS011;228;48.922;12.198;2023-08-21T19:03:54;14.35;;;9.43;;
483;SDS011;228;48.922;12.198;2023-08-21T19:06:20;12.40;;;9.82;;
483;SDS011;228;48.922;12.198;2023-08-21T19:08:46;11.63;;;9.32;;
483;SDS011;228;48.922;12.198;2023-08-21T19:11:12;10.60;;;9.43;;
483;SDS011;228;48.922;12.198;2023-08-21T19:13:38;13.88;;;9.55;;
483;SDS011;228;48.922;12.198;2023-08-21T19:16:04;10.15;;;8.85;;
483;SDS011;228;48.922;12.198;2023-08-21T19:18:30;10.82;;;9.73;;
483;SDS011;228;48.922;12.198;2023-08-21T19:20:58;12.90;;;9.57;;
483;SDS011;228;48.922;12.198;2023-08-21T19:23:24;12.43;;;9.50;;
483;SDS011;228;48.922;12.198;2023-08-21T19:25:51;10.13;;;9.00;;